createdAt,value
2023-05-10T00:01:05.732Z,8.45
2023-05-10T00:03:33.256Z,8.46
2023-05-10T00:06:00.864Z,8.45
2023-05-10T00:08:28.122Z,8.42
2023-05-10T00:10:55.637Z,8.44
2023-05-10T00:13:24.686Z,8.43
2023-05-10T00:15:52.132Z,8.41
2023-05-10T00:18:19.820Z,8.39
2023-05-10T00:20:47.221Z,8.38
2023-05-10T00:23:14.703Z,8.38
2023-05-10T00:25:42.089Z,8.39
2023-05-10T00:28:09.477Z,8.38
2023-05-10T00:30:40.152Z,8.36
2023-05-10T00:33:08.014Z,8.32
2023-05-10T00:35:35.385Z,8.28
2023-05-10T00:38:02.800Z,8.27
2023-05-10T00:40:31.673Z,8.23
2023-05-10T00:43:04.186Z,8.20
2023-05-10T00:45:32.229Z,8.20
2023-05-10T00:48:03.489Z,8.18
2023-05-10T00:50:31.975Z,8.17
2023-05-10T00:53:00.201Z,8.15
2023-05-10T00:55:28.045Z,8.18
2023-05-10T00:57:55.484Z,8.18
2023-05-10T01:00:23.093Z,8.19
2023-05-10T01:02:51.477Z,8.22
2023-05-10T01:05:20.671Z,8.22
2023-05-10T01:07:48.218Z,8.24
2023-05-10T01:10:16.006Z,8.20
2023-05-10T01:12:47.497Z,8.20
2023-05-10T01:15:17.736Z,8.15
2023-05-10T01:17:48.386Z,8.16
2023-05-10T01:20:16.508Z,8.11
2023-05-10T01:23:12.007Z,8.10
2023-05-10T01:25:58.580Z,8.05
2023-05-10T01:28:49.562Z,8.01
2023-05-10T01:31:30.288Z,7.99
2023-05-10T01:34:05.471Z,8.00
2023-05-10T01:36:41.226Z,7.94
2023-05-10T01:39:17.209Z,8.02
2023-05-10T01:41:50.778Z,8.02
2023-05-10T01:44:24.196Z,8.00
2023-05-10T01:46:58.555Z,7.95
2023-05-10T01:49:32.030Z,7.94
2023-05-10T01:52:05.088Z,7.90
2023-05-10T01:54:35.084Z,7.93
2023-05-10T01:57:06.665Z,7.92
2023-05-10T01:59:40.269Z,7.90
2023-05-10T02:02:13.138Z,7.86
2023-05-10T02:04:43.262Z,7.84
2023-05-10T02:07:12.000Z,7.83
2023-05-10T02:09:39.821Z,7.86
2023-05-10T02:12:09.540Z,7.88
2023-05-10T02:14:38.947Z,7.91
2023-05-10T02:17:08.915Z,7.96
2023-05-10T02:19:39.636Z,7.96
2023-05-10T02:22:10.184Z,7.97
2023-05-10T02:24:38.850Z,7.97
2023-05-10T02:27:07.405Z,7.95
2023-05-10T02:29:35.383Z,7.93
2023-05-10T02:32:03.688Z,7.88
2023-05-10T02:34:32.940Z,7.87
2023-05-10T02:37:02.999Z,7.87
2023-05-10T02:39:33.313Z,7.85
2023-05-10T02:42:03.371Z,7.74
2023-05-10T02:44:32.324Z,7.87
2023-05-10T02:47:00.041Z,7.87
2023-05-10T02:49:27.581Z,7.85
2023-05-10T02:52:03.564Z,7.87
2023-05-10T02:54:38.124Z,7.83
2023-05-10T02:57:07.045Z,7.82
2023-05-10T02:59:34.560Z,7.82
2023-05-10T03:02:03.151Z,7.86
2023-05-10T03:04:30.869Z,7.89
2023-05-10T03:06:59.352Z,7.89
2023-05-10T03:09:27.641Z,7.92
2023-05-10T03:12:05.113Z,7.98
2023-05-10T03:14:46.758Z,8.01
2023-05-10T03:17:23.624Z,8.07
2023-05-10T03:19:55.508Z,8.11
2023-05-10T03:22:27.668Z,8.15
2023-05-10T03:24:58.809Z,8.19
2023-05-10T03:27:32.382Z,8.23
2023-05-10T03:30:03.565Z,8.24
2023-05-10T03:32:35.873Z,8.27
2023-05-10T03:35:08.553Z,8.30
2023-05-10T03:37:36.779Z,8.32
2023-05-10T03:40:05.360Z,8.36
2023-05-10T03:42:36.818Z,8.41
2023-05-10T03:45:04.970Z,8.43
2023-05-10T03:47:33.992Z,8.49
2023-05-10T03:50:01.688Z,8.55
2023-05-10T03:52:33.220Z,8.61
2023-05-10T03:55:00.776Z,8.66
2023-05-10T03:57:28.372Z,8.73
2023-05-10T03:59:57.175Z,8.79
2023-05-10T04:02:24.789Z,8.83
2023-05-10T04:04:52.695Z,8.87
2023-05-10T04:07:20.418Z,8.91
2023-05-10T04:09:48.527Z,8.98
2023-05-10T04:12:15.961Z,9.06
2023-05-10T04:14:43.673Z,9.13
2023-05-10T04:17:12.603Z,9.20
2023-05-10T04:19:39.974Z,9.29
2023-05-10T04:22:07.360Z,9.36
2023-05-10T04:24:34.804Z,9.41
2023-05-10T04:27:02.340Z,9.47
2023-05-10T04:29:29.993Z,9.54
2023-05-10T04:31:57.795Z,9.60
2023-05-10T04:34:26.739Z,9.65
2023-05-10T04:36:56.301Z,9.70
2023-05-10T04:39:23.587Z,9.77
2023-05-10T04:41:50.914Z,9.83
2023-05-10T04:44:18.327Z,9.89
2023-05-10T04:46:45.688Z,9.91
2023-05-10T04:49:13.287Z,10.06
2023-05-10T04:51:42.083Z,10.16
2023-05-10T04:54:12.143Z,10.20
2023-05-10T04:56:39.650Z,10.26
2023-05-10T04:59:07.163Z,10.34
2023-05-10T05:01:34.849Z,10.44
2023-05-10T05:04:02.579Z,10.51
2023-05-10T05:06:29.996Z,10.62
2023-05-10T05:08:58.782Z,10.69
2023-05-10T05:11:27.010Z,10.78
2023-05-10T05:13:54.335Z,10.87
2023-05-10T05:16:21.769Z,10.97
2023-05-10T05:18:49.239Z,11.09
2023-05-10T05:21:17.504Z,11.20
2023-05-10T05:23:45.532Z,11.33
2023-05-10T05:26:14.454Z,11.46
2023-05-10T05:28:42.109Z,11.56
2023-05-10T05:31:10.298Z,11.65
2023-05-10T05:33:38.138Z,11.73
2023-05-10T05:36:06.761Z,11.86
2023-05-10T05:38:34.483Z,11.97
2023-05-10T05:41:01.831Z,12.08
2023-05-10T05:43:30.682Z,12.19
2023-05-10T05:45:59.165Z,12.29
2023-05-10T05:48:27.392Z,12.42
2023-05-10T05:50:57.139Z,12.50
2023-05-10T05:53:24.660Z,12.57
2023-05-10T05:55:54.203Z,12.64
2023-05-10T05:58:22.041Z,12.74
2023-05-10T06:00:51.428Z,12.83
2023-05-10T06:03:19.140Z,12.92
2023-05-10T06:05:46.842Z,13.01
2023-05-10T06:08:14.147Z,13.08
2023-05-10T06:10:41.400Z,13.13
2023-05-10T06:13:08.834Z,13.24
2023-05-10T06:15:36.247Z,13.35
2023-05-10T06:18:05.282Z,13.46
2023-05-10T06:20:33.009Z,13.62
2023-05-10T06:23:00.710Z,13.77
2023-05-10T06:25:27.911Z,13.82
2023-05-10T06:27:58.515Z,13.85
2023-05-10T06:30:29.684Z,13.93
2023-05-10T06:32:58.185Z,14.09
2023-05-10T06:35:27.422Z,14.28
2023-05-10T06:37:55.161Z,14.43
2023-05-10T06:40:22.543Z,14.56
2023-05-10T06:42:50.369Z,14.65
2023-05-10T06:45:18.984Z,14.72
2023-05-10T06:47:46.952Z,14.79
2023-05-10T06:50:14.582Z,14.80
2023-05-10T06:52:44.127Z,14.76
2023-05-10T06:55:12.206Z,14.63
2023-05-10T06:57:39.541Z,14.60
2023-05-10T07:00:08.341Z,14.57
2023-05-10T07:02:35.582Z,14.63
2023-05-10T07:05:03.655Z,14.79
2023-05-10T07:07:32.855Z,14.98
2023-05-10T07:10:01.945Z,15.20
2023-05-10T07:12:32.162Z,15.37
2023-05-10T07:14:59.628Z,15.47
2023-05-10T07:17:27.254Z,15.55
2023-05-10T07:19:54.645Z,15.58
2023-05-10T07:22:22.065Z,15.63
2023-05-10T07:24:49.355Z,15.62
2023-05-10T07:27:18.060Z,15.73
2023-05-10T07:29:45.477Z,15.89
2023-05-10T07:32:12.867Z,15.94
2023-05-10T07:34:40.408Z,16.04
2023-05-10T07:37:08.527Z,16.02
2023-05-10T07:39:35.910Z,16.02
2023-05-10T07:42:04.118Z,16.18
2023-05-10T07:44:32.881Z,16.31
2023-05-10T07:47:00.625Z,16.47
2023-05-10T07:49:28.177Z,16.55
2023-05-10T07:51:55.491Z,16.72
2023-05-10T07:54:23.046Z,16.87
2023-05-10T07:56:50.644Z,17.09
2023-05-10T07:59:18.483Z,17.17
2023-05-10T08:01:47.494Z,17.35
2023-05-10T08:04:14.903Z,17.36
2023-05-10T08:06:42.316Z,17.38
2023-05-10T08:09:10.183Z,17.37
2023-05-10T08:11:37.945Z,17.43
2023-05-10T08:14:05.476Z,17.61
2023-05-10T08:16:33.614Z,17.76
2023-05-10T08:19:02.638Z,17.81
2023-05-10T08:21:30.492Z,17.84
2023-05-10T08:23:58.858Z,17.90
2023-05-10T08:26:27.060Z,18.04
2023-05-10T08:28:54.698Z,18.29
2023-05-10T08:31:22.520Z,18.44
2023-05-10T08:33:49.909Z,18.36
2023-05-10T08:36:22.667Z,18.37
2023-05-10T08:38:52.173Z,18.24
2023-05-10T08:41:22.047Z,18.26
2023-05-10T08:43:51.455Z,18.29
2023-05-10T08:46:20.649Z,18.21
2023-05-10T08:48:49.482Z,18.29
2023-05-10T08:51:22.350Z,18.58
2023-05-10T08:53:50.087Z,18.84
2023-05-10T08:56:18.905Z,19.12
2023-05-10T08:58:46.411Z,19.51
2023-05-10T09:01:15.010Z,19.80
2023-05-10T09:03:43.064Z,19.97
2023-05-10T09:06:12.638Z,19.94
2023-05-10T09:08:42.763Z,19.68
2023-05-10T09:11:11.333Z,19.30
2023-05-10T09:13:38.999Z,18.99
2023-05-10T09:16:17.492Z,18.84
2023-05-10T09:18:51.018Z,18.61
2023-05-10T09:21:20.455Z,18.38
2023-05-10T09:23:51.338Z,18.07
2023-05-10T09:26:23.983Z,17.82
2023-05-10T09:28:56.609Z,17.69
2023-05-10T09:31:26.292Z,17.88
2023-05-10T09:33:54.349Z,18.08
2023-05-10T09:36:21.812Z,18.27
2023-05-10T09:38:52.914Z,18.75
2023-05-10T09:41:22.608Z,19.26
2023-05-10T09:43:51.004Z,19.22
2023-05-10T09:46:18.370Z,18.89
2023-05-10T09:48:48.001Z,18.85
2023-05-10T09:51:21.462Z,18.83
2023-05-10T09:54:09.699Z,18.82
2023-05-10T09:56:39.961Z,18.69
2023-05-10T09:59:09.208Z,18.52
2023-05-10T10:01:37.389Z,18.39
2023-05-10T10:04:06.371Z,18.32
2023-05-10T10:06:37.974Z,18.44
2023-05-10T10:09:07.343Z,18.64
2023-05-10T10:11:36.319Z,18.62
2023-05-10T10:14:04.051Z,18.55
2023-05-10T10:16:32.630Z,18.63
2023-05-10T10:19:01.880Z,18.85
2023-05-10T10:21:29.873Z,18.90
2023-05-10T10:23:57.391Z,18.92
2023-05-10T10:26:26.540Z,18.78
2023-05-10T10:29:10.005Z,18.46
2023-05-10T10:31:45.693Z,18.11
2023-05-10T10:34:28.034Z,17.96
2023-05-10T10:36:56.757Z,18.02
2023-05-10T10:39:28.138Z,18.12
2023-05-10T10:41:58.580Z,18.49
2023-05-10T10:44:41.504Z,18.83
2023-05-10T10:47:32.224Z,19.06
2023-05-10T10:50:07.566Z,19.33
2023-05-10T10:52:36.324Z,19.52
2023-05-10T10:55:07.345Z,19.59
2023-05-10T10:57:45.958Z,19.60
2023-05-10T11:00:25.532Z,19.41
2023-05-10T11:02:54.313Z,19.29
2023-05-10T11:05:27.080Z,19.20
2023-05-10T11:07:55.332Z,19.10
2023-05-10T11:10:22.696Z,19.13
2023-05-10T11:13:01.955Z,19.12
2023-05-10T11:15:33.017Z,19.23
2023-05-10T11:18:01.219Z,19.02
2023-05-10T11:20:34.420Z,18.64
2023-05-10T11:23:17.064Z,18.41
2023-05-10T11:25:45.656Z,18.35
2023-05-10T11:28:14.725Z,18.47
2023-05-10T11:30:44.776Z,18.61
2023-05-10T11:33:17.228Z,18.73
2023-05-10T11:35:45.035Z,18.64
2023-05-10T11:38:13.324Z,18.66
2023-05-10T11:40:41.835Z,18.75
2023-05-10T11:43:11.580Z,18.82
2023-05-10T11:45:42.417Z,18.73
2023-05-10T11:48:09.969Z,18.77
2023-05-10T11:50:37.619Z,18.76
2023-05-10T11:53:05.024Z,18.75
2023-05-10T11:55:35.281Z,18.58
2023-05-10T11:58:03.740Z,18.51
2023-05-10T12:00:32.678Z,18.44
2023-05-10T12:03:02.395Z,18.41
2023-05-10T12:05:34.007Z,18.42
2023-05-10T12:08:14.780Z,18.51
2023-05-10T12:10:42.738Z,18.19
2023-05-10T12:13:16.460Z,17.90
2023-05-10T12:15:44.629Z,17.61
2023-05-10T12:18:14.781Z,17.36
2023-05-10T12:20:42.628Z,17.21
2023-05-10T12:23:11.090Z,17.14
2023-05-10T12:25:39.450Z,17.20
2023-05-10T12:28:08.864Z,17.30
2023-05-10T12:30:38.058Z,17.42
2023-05-10T12:33:09.818Z,17.51
2023-05-10T12:35:46.708Z,17.71
2023-05-10T12:38:30.615Z,17.82
2023-05-10T12:40:59.201Z,17.82
2023-05-10T12:43:26.789Z,17.86
2023-05-10T12:45:54.208Z,17.91
2023-05-10T12:48:21.561Z,17.93
2023-05-10T12:50:50.488Z,17.93
2023-05-10T12:53:18.459Z,17.94
2023-05-10T12:55:45.949Z,18.01
2023-05-10T12:58:17.927Z,17.99
2023-05-10T13:00:48.541Z,18.00
2023-05-10T13:03:16.909Z,18.02
2023-05-10T13:05:44.559Z,17.98
2023-05-10T13:08:16.472Z,17.91
2023-05-10T13:10:49.975Z,17.84
2023-05-10T13:13:17.301Z,17.90
2023-05-10T13:15:44.850Z,17.91
2023-05-10T13:18:12.375Z,17.94
2023-05-10T13:20:39.849Z,17.93
2023-05-10T13:23:07.382Z,17.91
2023-05-10T13:25:36.586Z,17.94
2023-05-10T13:28:04.045Z,17.89
2023-05-10T13:30:33.386Z,17.83
2023-05-10T13:33:01.123Z,17.81
2023-05-10T13:35:30.650Z,17.65
2023-05-10T13:38:01.096Z,17.44
2023-05-10T13:40:31.587Z,17.21
2023-05-10T13:43:00.617Z,17.13
2023-05-10T13:45:28.451Z,17.07
2023-05-10T13:48:01.028Z,17.09
2023-05-10T13:50:28.509Z,17.06
2023-05-10T13:52:56.595Z,17.03
2023-05-10T13:55:24.350Z,17.08
2023-05-10T13:57:51.862Z,17.10
2023-05-10T14:00:21.240Z,17.11
2023-05-10T14:02:48.750Z,17.14
2023-05-10T14:05:17.066Z,17.08
2023-05-10T14:07:45.507Z,17.02
2023-05-10T14:10:12.930Z,17.04
2023-05-10T14:12:40.383Z,17.07
2023-05-10T14:15:11.140Z,17.08
2023-05-10T14:17:40.202Z,17.08
2023-05-10T14:20:08.813Z,17.05
2023-05-10T14:22:36.610Z,17.05
2023-05-10T14:25:07.813Z,16.99
2023-05-10T14:27:35.458Z,16.79
2023-05-10T14:30:02.878Z,16.60
2023-05-10T14:32:33.337Z,16.55
2023-05-10T14:35:02.266Z,16.47
2023-05-10T14:37:32.121Z,16.54
2023-05-10T14:40:01.091Z,16.58
2023-05-10T14:42:30.651Z,16.64
2023-05-10T14:44:58.811Z,16.68
2023-05-10T14:47:26.089Z,16.74
2023-05-10T14:49:53.722Z,16.72
2023-05-10T14:52:24.864Z,16.67
2023-05-10T14:54:52.219Z,16.59
2023-05-10T14:57:19.577Z,16.53
2023-05-10T14:59:46.992Z,16.48
2023-05-10T15:02:26.416Z,16.47
2023-05-10T15:04:55.916Z,16.50
2023-05-10T15:07:25.082Z,16.50
2023-05-10T15:09:55.518Z,16.49
2023-05-10T15:12:22.957Z,16.46
2023-05-10T15:14:58.791Z,16.43
2023-05-10T15:17:49.089Z,16.34
2023-05-10T15:21:04.770Z,16.34
2023-05-10T15:24:00.958Z,16.32
2023-05-10T15:26:27.401Z,16.20
2023-05-10T15:28:58.959Z,16.14
2023-05-10T15:32:18.498Z,16.12
2023-05-10T15:34:46.149Z,16.08
2023-05-10T15:37:13.794Z,16.05
2023-05-10T15:39:42.583Z,16.08
2023-05-10T15:42:09.995Z,16.11
2023-05-10T15:44:39.498Z,16.15
2023-05-10T15:47:07.037Z,16.16
2023-05-10T15:49:34.932Z,16.12
2023-05-10T15:52:02.473Z,16.09
2023-05-10T15:54:45.049Z,16.08
2023-05-10T15:57:12.654Z,16.09
2023-05-10T15:59:39.875Z,16.11
2023-05-10T16:02:35.402Z,16.10
2023-05-10T16:05:03.170Z,16.05
2023-05-10T16:07:32.641Z,16.01
2023-05-10T16:10:06.641Z,15.93
2023-05-10T16:12:34.438Z,15.89
2023-05-10T16:24:30.516Z,15.83
2023-05-10T16:27:02.585Z,15.71
2023-05-10T16:30:40.046Z,15.65
2023-05-10T16:36:18.863Z,15.59
2023-05-10T16:38:46.761Z,15.60
2023-05-10T16:41:14.036Z,15.61
2023-05-10T16:43:47.184Z,15.60
2023-05-10T16:46:21.186Z,15.50
2023-05-10T16:48:56.068Z,15.45
2023-05-10T16:51:23.690Z,15.42
2023-05-10T16:53:51.142Z,15.39
2023-05-10T16:56:18.844Z,15.39
2023-05-10T16:58:51.697Z,15.39
2023-05-10T17:08:48.012Z,15.35
2023-05-10T17:11:27.702Z,15.32
2023-05-10T17:13:56.616Z,15.38
2023-05-10T17:16:24.384Z,15.41
2023-05-10T17:18:51.888Z,15.42
2023-05-10T17:25:50.186Z,15.38
2023-05-10T17:32:41.444Z,15.14
2023-05-10T17:36:01.906Z,15.07
2023-05-10T17:38:29.656Z,15.32
2023-05-10T17:40:57.170Z,15.27
2023-05-10T17:43:26.173Z,15.23
2023-05-10T17:45:53.811Z,15.14
2023-05-10T17:48:23.152Z,15.09
2023-05-10T17:50:51.097Z,15.00
2023-05-10T17:53:19.513Z,14.92
2023-05-10T17:55:47.173Z,14.89
2023-05-10T17:58:14.536Z,14.85
2023-05-10T18:00:41.950Z,14.81
2023-05-10T18:03:11.822Z,14.79
2023-05-10T18:05:40.942Z,14.74
2023-05-10T18:08:08.787Z,14.69
2023-05-10T18:10:38.159Z,14.63
2023-05-10T18:13:08.946Z,14.52
2023-05-10T18:15:36.565Z,14.44
2023-05-10T18:18:04.772Z,14.39
2023-05-10T18:20:32.577Z,14.37
2023-05-10T18:23:01.523Z,14.32
2023-05-10T18:25:29.280Z,14.26
2023-05-10T18:27:56.880Z,14.22
2023-05-10T18:30:24.301Z,14.17
2023-05-10T18:32:51.742Z,14.09
2023-05-10T18:35:19.649Z,14.06
2023-05-10T18:37:47.483Z,14.03
2023-05-10T18:40:20.744Z,14.04
2023-05-10T18:42:50.185Z,14.03
2023-05-10T18:45:18.213Z,13.99
2023-05-10T18:47:56.003Z,13.92
2023-05-10T18:50:25.774Z,13.81
2023-05-10T18:56:36.993Z,13.64
2023-05-10T18:59:06.030Z,13.59
2023-05-10T19:01:36.735Z,13.55
2023-05-10T19:04:09.847Z,13.57
2023-05-10T19:06:37.391Z,13.50
2023-05-10T19:09:05.095Z,13.55
2023-05-10T19:11:34.546Z,13.56
2023-05-10T19:14:05.886Z,13.50
2023-05-10T19:24:26.072Z,13.19
2023-05-10T19:26:53.793Z,13.23
2023-05-10T19:29:23.373Z,13.19
2023-05-10T19:31:52.544Z,13.23
2023-05-10T19:34:20.504Z,13.22
2023-05-10T19:36:51.356Z,13.23
2023-05-10T19:39:18.754Z,13.21
2023-05-10T19:41:47.963Z,13.21
2023-05-10T19:44:15.295Z,13.28
2023-05-10T19:46:44.452Z,13.31
2023-05-10T19:49:11.787Z,13.38
2023-05-10T19:51:39.210Z,13.41
2023-05-10T19:54:06.675Z,13.45
2023-05-10T19:56:34.298Z,13.45
2023-05-10T19:59:03.593Z,13.48
2023-05-10T20:01:32.855Z,13.48
2023-05-10T20:04:02.124Z,13.49
2023-05-10T20:06:29.603Z,13.47
2023-05-10T20:08:56.899Z,13.46
2023-05-10T20:11:24.186Z,13.39
2023-05-10T20:13:51.408Z,13.27
2023-05-10T20:16:18.927Z,13.20
2023-05-10T20:18:46.826Z,13.09
2023-05-10T20:21:15.731Z,12.97
2023-05-10T20:23:43.944Z,12.87
2023-05-10T20:26:11.306Z,12.93
2023-05-10T20:28:38.664Z,12.95
2023-05-10T20:31:06.146Z,12.95
2023-05-10T20:33:33.616Z,12.95
2023-05-10T20:36:01.041Z,12.96
2023-05-10T20:38:29.934Z,12.93
2023-05-10T20:40:57.427Z,12.89
2023-05-10T20:43:25.023Z,12.88
2023-05-10T20:45:54.192Z,12.90
2023-05-10T20:48:21.792Z,12.92
2023-05-10T20:50:49.226Z,12.91
2023-05-10T20:53:18.608Z,12.86
2023-05-10T20:55:47.406Z,12.83
2023-05-10T20:58:14.773Z,12.75
2023-05-10T21:00:42.344Z,12.64
2023-05-10T21:03:09.800Z,12.53
2023-05-10T21:05:37.284Z,12.41
2023-05-10T21:08:04.829Z,12.38
2023-05-10T21:10:32.204Z,12.35
2023-05-10T21:13:01.244Z,12.34
2023-05-10T21:15:28.929Z,12.30
2023-05-10T21:17:56.634Z,12.29
2023-05-10T21:20:24.031Z,12.23
2023-05-10T21:22:51.446Z,12.14
2023-05-10T21:25:19.158Z,12.08
2023-05-10T21:27:48.418Z,12.06
2023-05-10T21:30:17.543Z,12.07
2023-05-10T21:32:45.119Z,12.07
2023-05-10T21:35:12.561Z,12.07
2023-05-10T21:37:40.182Z,12.01
2023-05-10T21:40:08.399Z,11.74
2023-05-10T21:42:35.793Z,11.55
2023-05-10T21:45:04.013Z,11.44
2023-05-10T21:47:34.229Z,11.41
2023-05-10T21:50:01.884Z,11.42
2023-05-10T21:52:31.669Z,11.41
2023-05-10T21:54:59.181Z,11.43
2023-05-10T21:57:26.794Z,11.41
2023-05-10T21:59:54.284Z,11.41
2023-05-10T22:02:21.818Z,11.42
2023-05-10T22:04:50.809Z,11.47
2023-05-10T22:07:18.272Z,11.52
2023-05-10T22:09:45.722Z,11.58
2023-05-10T22:12:13.255Z,11.64
2023-05-10T22:14:40.656Z,11.72
2023-05-10T22:17:08.342Z,11.77
2023-05-10T22:19:35.861Z,11.81
2023-05-10T22:22:04.815Z,11.87
2023-05-10T22:24:32.372Z,11.92
2023-05-10T22:26:59.876Z,11.97
2023-05-10T22:29:27.497Z,11.97
2023-05-10T22:31:55.050Z,11.97
2023-05-10T22:34:22.767Z,11.95
2023-05-10T22:36:50.659Z,11.92
2023-05-10T22:39:19.699Z,11.91
2023-05-10T22:41:47.009Z,11.90
2023-05-10T22:44:14.475Z,11.86
2023-05-10T22:46:41.767Z,11.90
2023-05-10T22:49:09.806Z,11.89
2023-05-10T22:51:37.503Z,11.85
2023-05-10T22:54:05.185Z,11.81
2023-05-10T22:56:34.191Z,11.76
2023-05-10T22:59:01.657Z,11.72
2023-05-10T23:01:29.722Z,11.63
2023-05-10T23:03:57.230Z,11.56
2023-05-10T23:06:24.740Z,11.48
2023-05-10T23:08:52.188Z,11.41
2023-05-10T23:11:19.725Z,11.36
2023-05-10T23:13:48.796Z,11.40
2023-05-10T23:16:16.183Z,11.41
2023-05-10T23:18:43.712Z,11.41
2023-05-10T23:21:11.297Z,11.39
2023-05-10T23:23:38.796Z,11.37
2023-05-10T23:26:06.385Z,11.33
2023-05-10T23:28:33.816Z,11.25
2023-05-10T23:31:02.642Z,11.16
2023-05-10T23:33:30.173Z,11.11
2023-05-10T23:35:57.472Z,11.06
2023-05-10T23:38:24.909Z,11.00
2023-05-10T23:40:52.367Z,10.94
2023-05-10T23:43:20.078Z,10.95
2023-05-10T23:45:53.899Z,10.96
2023-05-10T23:48:23.223Z,10.97
2023-05-10T23:50:50.875Z,11.00
2023-05-10T23:53:18.405Z,11.00
2023-05-10T23:55:45.786Z,10.97
2023-05-10T23:58:13.204Z,10.91
